createdAt,value
2023-03-24T00:01:44.134Z,10.34
2023-03-24T00:04:10.749Z,10.25
2023-03-24T00:06:37.312Z,10.33
2023-03-24T00:09:04.459Z,10.32
2023-03-24T00:11:34.406Z,10.43
2023-03-24T00:14:02.638Z,10.10
2023-03-24T00:16:29.242Z,10.25
2023-03-24T00:18:55.795Z,10.28
2023-03-24T00:21:27.060Z,10.33
2023-03-24T00:23:58.772Z,10.20
2023-03-24T00:26:25.769Z,10.28
2023-03-24T00:28:52.536Z,10.24
2023-03-24T00:31:19.236Z,10.16
2023-03-24T00:33:50.770Z,10.27
2023-03-24T00:36:21.094Z,10.27
2023-03-24T00:38:48.478Z,10.29
2023-03-24T00:41:17.835Z,10.13
2023-03-24T00:43:44.433Z,10.12
2023-03-24T00:46:12.161Z,10.25
2023-03-24T00:48:41.890Z,10.10
2023-03-24T00:51:11.196Z,10.16
2023-03-24T00:53:43.502Z,10.11
2023-03-24T00:56:11.806Z,10.13
2023-03-24T00:58:38.464Z,10.27
2023-03-24T01:01:06.584Z,10.25
2023-03-24T01:03:34.209Z,10.13
2023-03-24T01:06:03.202Z,10.16
2023-03-24T01:08:31.129Z,10.18
2023-03-24T01:11:01.221Z,10.21
2023-03-24T01:13:29.080Z,10.31
2023-03-24T01:15:55.787Z,10.96
2023-03-24T01:18:25.297Z,11.25
2023-03-24T01:20:51.855Z,10.94
2023-03-24T01:23:23.147Z,10.71
2023-03-24T01:25:50.334Z,11.07
2023-03-24T01:28:23.316Z,11.09
2023-03-24T01:30:49.867Z,10.42
2023-03-24T01:33:16.497Z,10.29
2023-03-24T01:35:43.085Z,10.16
2023-03-24T01:38:11.032Z,10.28
2023-03-24T01:40:39.532Z,10.21
2023-03-24T01:43:07.298Z,10.51
2023-03-24T01:45:40.186Z,10.50
2023-03-24T01:48:07.220Z,10.48
2023-03-24T01:50:33.821Z,10.42
2023-03-24T01:53:01.154Z,10.15
2023-03-24T01:55:27.749Z,10.12
2023-03-24T01:57:56.807Z,10.32
2023-03-24T02:00:24.013Z,10.45
2023-03-24T02:02:58.647Z,10.24
2023-03-24T02:05:27.917Z,10.19
2023-03-24T02:08:08.494Z,10.07
2023-03-24T02:10:35.880Z,9.79
2023-03-24T02:13:04.476Z,9.70
2023-03-24T02:15:31.622Z,9.79
2023-03-24T02:18:18.501Z,9.83
2023-03-24T02:21:06.243Z,9.87
2023-03-24T02:24:03.465Z,10.06
2023-03-24T02:26:51.626Z,10.27
2023-03-24T02:29:52.485Z,10.40
2023-03-24T02:32:37.687Z,10.33
2023-03-24T02:35:29.163Z,10.23
2023-03-24T02:38:01.876Z,10.10
2023-03-24T02:40:31.060Z,9.89
2023-03-24T02:43:28.202Z,9.93
2023-03-24T02:46:15.012Z,9.75
2023-03-24T02:48:51.567Z,9.66
2023-03-24T02:51:23.606Z,9.78
2023-03-24T02:53:59.099Z,9.81
2023-03-24T02:56:45.729Z,9.81
2023-03-24T02:59:23.603Z,9.83
2023-03-24T03:01:54.660Z,9.89
2023-03-24T03:04:33.816Z,9.76
2023-03-24T03:07:06.433Z,9.55
2023-03-24T03:09:32.986Z,9.61
2023-03-24T03:11:59.496Z,9.48
2023-03-24T03:14:34.149Z,9.46
2023-03-24T03:17:34.146Z,9.46
2023-03-24T03:20:08.167Z,9.39
2023-03-24T03:22:43.138Z,9.47
2023-03-24T03:25:10.872Z,9.42
2023-03-24T03:27:40.129Z,9.48
2023-03-24T03:30:09.196Z,9.43
2023-03-24T03:32:39.122Z,9.47
2023-03-24T03:35:13.781Z,9.50
2023-03-24T03:37:49.722Z,9.55
2023-03-24T03:40:33.138Z,9.33
2023-03-24T03:42:59.669Z,9.13
2023-03-24T03:45:26.316Z,9.17
2023-03-24T03:47:52.913Z,9.21
2023-03-24T03:50:19.588Z,9.22
2023-03-24T03:52:46.156Z,9.14
2023-03-24T03:55:12.720Z,9.05
2023-03-24T03:57:39.322Z,9.16
2023-03-24T04:00:08.224Z,9.15
2023-03-24T04:03:05.422Z,9.20
2023-03-24T04:05:53.792Z,9.20
2023-03-24T04:09:17.926Z,9.18
2023-03-24T04:11:50.152Z,9.23
2023-03-24T04:14:19.179Z,9.13
2023-03-24T04:16:57.664Z,9.46
2023-03-24T04:20:02.077Z,9.51
2023-03-24T04:22:38.339Z,9.59
2023-03-24T04:25:12.509Z,9.61
2023-03-24T04:28:03.711Z,9.52
2023-03-24T04:30:38.068Z,9.61
2023-03-24T04:33:25.114Z,9.62
2023-03-24T04:36:06.324Z,9.56
2023-03-24T04:38:35.542Z,9.50
2023-03-24T04:41:02.202Z,9.58
2023-03-24T04:43:29.215Z,9.62
2023-03-24T04:45:57.803Z,9.50
2023-03-24T04:48:25.157Z,9.54
2023-03-24T04:50:58.874Z,9.49
2023-03-24T04:53:25.457Z,9.40
2023-03-24T04:56:01.025Z,9.45
2023-03-24T04:58:27.625Z,9.31
2023-03-24T05:00:56.514Z,9.40
2023-03-24T05:03:23.143Z,9.49
2023-03-24T05:05:50.175Z,9.47
2023-03-24T05:08:16.975Z,9.53
2023-03-24T05:10:43.734Z,9.55
2023-03-24T05:13:10.678Z,9.20
2023-03-24T05:15:37.245Z,9.24
2023-03-24T05:18:05.006Z,9.54
2023-03-24T05:20:31.710Z,9.60
2023-03-24T05:22:58.249Z,9.50
2023-03-24T05:25:24.772Z,9.56
2023-03-24T05:27:51.337Z,9.71
2023-03-24T05:30:20.175Z,9.72
2023-03-24T05:32:47.424Z,9.80
2023-03-24T05:35:14.293Z,9.79
2023-03-24T05:37:40.845Z,9.70
2023-03-24T05:40:08.159Z,9.68
2023-03-24T05:42:34.637Z,9.63
2023-03-24T05:45:01.151Z,9.73
2023-03-24T05:47:27.747Z,9.79
2023-03-24T05:49:54.288Z,9.69
2023-03-24T05:52:20.901Z,9.74
2023-03-24T05:54:49.421Z,9.77
2023-03-24T05:57:16.317Z,9.82
2023-03-24T05:59:42.765Z,9.86
2023-03-24T06:02:09.362Z,9.94
2023-03-24T06:04:36.148Z,9.86
2023-03-24T06:07:02.940Z,9.92
2023-03-24T06:09:33.015Z,9.99
2023-03-24T06:11:59.825Z,10.02
2023-03-24T06:14:26.579Z,10.12
2023-03-24T06:16:53.175Z,10.06
2023-03-24T06:19:24.657Z,9.82
2023-03-24T06:21:51.139Z,9.84
2023-03-24T06:24:17.912Z,9.86
2023-03-24T06:26:50.008Z,9.79
2023-03-24T06:29:19.930Z,9.88
2023-03-24T06:31:47.963Z,10.03
2023-03-24T06:34:14.514Z,10.02
2023-03-24T06:36:41.068Z,9.99
2023-03-24T06:39:07.655Z,9.92
2023-03-24T06:41:34.470Z,9.89
2023-03-24T06:44:01.832Z,9.94
2023-03-24T06:46:28.345Z,9.99
2023-03-24T06:48:54.860Z,10.14
2023-03-24T06:51:21.592Z,10.27
2023-03-24T06:53:48.133Z,10.41
2023-03-24T06:56:19.824Z,10.50
2023-03-24T06:58:46.551Z,10.34
2023-03-24T07:01:13.081Z,10.34
2023-03-24T07:03:41.845Z,10.19
2023-03-24T07:06:09.651Z,10.29
2023-03-24T07:08:38.761Z,10.22
2023-03-24T07:11:07.010Z,10.40
2023-03-24T07:13:33.941Z,10.48
2023-03-24T07:16:00.576Z,10.61
2023-03-24T07:18:27.109Z,10.66
2023-03-24T07:20:53.683Z,10.79
2023-03-24T07:23:21.196Z,10.85
2023-03-24T07:25:47.794Z,10.80
2023-03-24T07:28:14.385Z,10.84
2023-03-24T07:30:41.343Z,10.81
2023-03-24T07:33:08.082Z,10.76
2023-03-24T07:35:35.365Z,10.61
2023-03-24T07:38:02.009Z,10.65
2023-03-24T07:40:29.974Z,10.45
2023-03-24T07:43:00.310Z,10.49
2023-03-24T07:45:28.414Z,10.69
2023-03-24T07:47:57.200Z,10.72
2023-03-24T07:50:23.899Z,10.70
2023-03-24T07:52:50.450Z,10.71
2023-03-24T07:55:17.020Z,10.90
2023-03-24T07:57:45.973Z,10.74
2023-03-24T08:00:17.784Z,10.68
2023-03-24T08:02:45.421Z,10.68
2023-03-24T08:05:14.516Z,10.68
2023-03-24T08:07:44.425Z,10.80
2023-03-24T08:10:13.781Z,10.82
2023-03-24T08:12:40.825Z,10.99
2023-03-24T08:15:07.692Z,11.02
2023-03-24T08:17:34.253Z,11.03
2023-03-24T08:20:03.987Z,11.15
2023-03-24T08:22:32.118Z,11.01
2023-03-24T08:24:58.582Z,10.97
2023-03-24T08:27:25.115Z,11.00
2023-03-24T08:29:51.628Z,10.92
2023-03-24T08:32:18.087Z,10.98
2023-03-24T08:34:44.626Z,10.98
2023-03-24T08:37:12.082Z,11.00
2023-03-24T08:39:38.608Z,11.09
2023-03-24T08:42:06.127Z,11.28
2023-03-24T08:44:33.049Z,11.26
2023-03-24T08:47:01.186Z,11.33
2023-03-24T08:49:27.780Z,11.37
2023-03-24T08:51:54.290Z,11.55
2023-03-24T08:54:23.566Z,11.55
2023-03-24T08:56:50.956Z,11.53
2023-03-24T08:59:17.637Z,11.63
2023-03-24T09:01:44.234Z,11.58
2023-03-24T09:04:10.940Z,11.73
2023-03-24T09:06:37.546Z,11.75
2023-03-24T09:09:04.039Z,11.80
2023-03-24T09:11:30.609Z,11.75
2023-03-24T09:13:57.138Z,11.72
2023-03-24T09:16:24.251Z,11.64
2023-03-24T09:18:51.141Z,11.62
2023-03-24T09:21:17.642Z,11.63
2023-03-24T09:23:44.386Z,11.71
2023-03-24T09:26:11.299Z,11.71
2023-03-24T09:28:37.803Z,11.78
2023-03-24T09:31:05.616Z,11.85
2023-03-24T09:33:34.213Z,11.98
2023-03-24T09:36:01.274Z,12.05
2023-03-24T09:38:28.179Z,12.11
2023-03-24T09:40:57.809Z,12.11
2023-03-24T09:43:37.713Z,12.22
2023-03-24T09:46:04.997Z,12.22
2023-03-24T09:48:52.086Z,12.28
2023-03-24T09:51:22.790Z,12.29
2023-03-24T09:53:56.893Z,12.33
2023-03-24T09:56:23.690Z,12.37
2023-03-24T09:58:53.569Z,12.37
2023-03-24T10:01:20.401Z,12.40
2023-03-24T10:03:47.107Z,12.41
2023-03-24T10:06:23.029Z,12.61
2023-03-24T10:09:03.752Z,12.57
2023-03-24T10:11:55.583Z,12.63
2023-03-24T10:14:43.217Z,12.81
2023-03-24T10:17:12.443Z,12.77
2023-03-24T10:19:44.800Z,12.86
2023-03-24T10:22:37.274Z,12.77
2023-03-24T10:25:19.269Z,12.91
2023-03-24T10:28:12.146Z,12.66
2023-03-24T10:30:43.013Z,12.78
2023-03-24T10:33:11.580Z,13.00
2023-03-24T10:36:08.223Z,12.97
2023-03-24T10:38:35.557Z,13.04
2023-03-24T10:41:02.068Z,13.02
2023-03-24T10:43:28.620Z,12.93
2023-03-24T10:45:56.523Z,13.06
2023-03-24T10:48:36.328Z,13.02
2023-03-24T10:51:02.887Z,13.06
2023-03-24T10:53:29.426Z,13.31
2023-03-24T10:55:56.156Z,13.20
2023-03-24T10:58:25.737Z,13.46
2023-03-24T11:00:52.487Z,13.16
2023-03-24T11:03:26.389Z,12.96
2023-03-24T11:05:58.329Z,12.88
2023-03-24T11:08:40.234Z,12.85
2023-03-24T11:11:30.939Z,13.04
2023-03-24T11:14:01.434Z,12.77
2023-03-24T11:16:29.905Z,12.71
2023-03-24T11:19:01.860Z,12.66
2023-03-24T11:21:29.410Z,12.74
2023-03-24T11:23:58.798Z,12.99
2023-03-24T11:26:35.766Z,13.02
2023-03-24T11:29:10.032Z,13.37
2023-03-24T11:31:39.323Z,13.38
2023-03-24T11:34:25.520Z,13.65
2023-03-24T11:36:58.219Z,14.06
2023-03-24T11:39:26.175Z,14.07
2023-03-24T11:42:01.888Z,13.61
2023-03-24T11:44:51.781Z,13.68
2023-03-24T11:47:30.574Z,13.37
2023-03-24T11:50:13.753Z,13.18
2023-03-24T11:52:46.732Z,13.16
2023-03-24T11:55:15.799Z,13.23
2023-03-24T11:57:51.602Z,13.36
2023-03-24T12:00:34.338Z,13.58
2023-03-24T12:04:15.942Z,13.83
2023-03-24T12:06:54.368Z,13.73
2023-03-24T12:09:32.828Z,14.13
2023-03-24T12:12:08.517Z,14.39
2023-03-24T12:14:51.133Z,14.17
2023-03-24T12:17:18.037Z,14.17
2023-03-24T12:19:50.831Z,14.54
2023-03-24T12:22:41.910Z,14.87
2023-03-24T12:25:20.426Z,15.14
2023-03-24T12:27:49.949Z,15.37
2023-03-24T12:30:34.962Z,15.36
2023-03-24T12:33:11.582Z,15.98
2023-03-24T12:36:00.881Z,15.73
2023-03-24T12:38:33.577Z,15.31
2023-03-24T12:41:04.905Z,14.99
2023-03-24T12:44:06.434Z,14.88
2023-03-24T12:49:05.272Z,14.95
2023-03-24T12:52:01.483Z,15.08
2023-03-24T12:54:46.041Z,14.92
2023-03-24T12:57:14.340Z,14.51
2023-03-24T12:59:44.836Z,14.70
2023-03-24T13:02:34.275Z,14.74
2023-03-24T13:05:05.405Z,14.67
2023-03-24T13:07:39.123Z,14.80
2023-03-24T13:10:11.930Z,14.95
2023-03-24T13:12:50.891Z,14.89
2023-03-24T13:15:20.487Z,15.18
2023-03-24T13:18:10.011Z,15.14
2023-03-24T13:20:56.347Z,15.05
2023-03-24T13:23:58.433Z,15.11
2023-03-24T13:26:30.659Z,15.14
2023-03-24T13:29:10.769Z,15.79
2023-03-24T13:31:51.094Z,15.73
2023-03-24T13:34:41.082Z,15.31
2023-03-24T13:37:41.289Z,15.13
2023-03-24T13:40:30.038Z,15.23
2023-03-24T13:43:00.549Z,15.46
2023-03-24T13:45:30.596Z,15.57
2023-03-24T13:48:16.046Z,15.55
2023-03-24T13:50:54.502Z,15.32
2023-03-24T13:53:32.809Z,15.49
2023-03-24T13:56:00.646Z,15.28
2023-03-24T13:58:28.410Z,15.46
2023-03-24T14:01:10.976Z,15.75
2023-03-24T14:03:45.326Z,16.06
2023-03-24T14:06:16.658Z,15.97
2023-03-24T14:08:52.277Z,16.03
2023-03-24T14:11:34.269Z,15.83
2023-03-24T14:14:07.061Z,15.95
2023-03-24T14:16:33.410Z,16.22
2023-03-24T14:19:41.752Z,16.46
2023-03-24T14:22:16.678Z,16.24
2023-03-24T14:24:46.276Z,16.34
2023-03-24T14:27:32.555Z,16.35
2023-03-24T14:30:11.394Z,16.13
2023-03-24T14:32:44.568Z,16.13
2023-03-24T14:35:32.136Z,15.72
2023-03-24T14:38:06.678Z,15.59
2023-03-24T14:40:40.979Z,15.66
2023-03-24T14:43:28.252Z,15.65
2023-03-24T14:45:59.849Z,15.86
2023-03-24T14:48:42.653Z,15.89
2023-03-24T14:51:12.914Z,15.76
2023-03-24T14:53:39.580Z,15.52
2023-03-24T14:56:13.343Z,15.54
2023-03-24T14:58:39.830Z,15.50
2023-03-24T15:01:07.964Z,15.40
2023-03-24T15:03:55.443Z,15.42
2023-03-24T15:06:25.450Z,15.38
2023-03-24T15:08:58.356Z,15.36
2023-03-24T15:11:27.232Z,15.40
2023-03-24T15:13:54.847Z,15.44
2023-03-24T15:16:23.971Z,15.60
2023-03-24T15:19:01.533Z,15.77
2023-03-24T15:21:46.709Z,15.90
2023-03-24T15:24:22.323Z,15.57
2023-03-24T15:26:55.978Z,15.33
2023-03-24T15:29:23.351Z,15.15
2023-03-24T15:31:49.961Z,14.95
2023-03-24T15:34:35.786Z,14.87
2023-03-24T15:37:05.321Z,14.75
2023-03-24T15:39:37.042Z,14.68
2023-03-24T15:42:15.832Z,14.72
2023-03-24T15:44:42.341Z,14.64
2023-03-24T15:47:25.919Z,14.59
2023-03-24T15:50:00.276Z,14.64
2023-03-24T15:52:28.044Z,14.58
2023-03-24T15:55:36.622Z,14.57
2023-03-24T15:58:27.856Z,14.41
2023-03-24T16:00:57.235Z,14.36
2023-03-24T16:03:27.007Z,14.41
2023-03-24T16:05:54.893Z,14.41
2023-03-24T16:08:35.846Z,14.38
2023-03-24T16:11:06.987Z,14.28
2023-03-24T16:13:33.756Z,14.23
2023-03-24T16:16:03.585Z,14.18
2023-03-24T16:18:34.296Z,14.16
2023-03-24T16:21:01.409Z,14.14
2023-03-24T16:23:28.382Z,14.16
2023-03-24T16:25:54.910Z,14.08
2023-03-24T16:28:22.047Z,14.07
2023-03-24T16:30:51.815Z,13.97
2023-03-24T16:33:20.713Z,13.93
2023-03-24T16:35:47.240Z,12.68
2023-03-24T16:38:14.123Z,12.29
2023-03-24T16:40:43.832Z,11.84
2023-03-24T16:43:10.345Z,11.78
2023-03-24T16:45:37.111Z,11.68
2023-03-24T16:48:03.707Z,11.58
2023-03-24T16:50:41.931Z,11.44
2023-03-24T16:53:08.902Z,11.33
2023-03-24T16:55:39.447Z,11.30
2023-03-24T16:58:06.401Z,11.27
2023-03-24T17:00:33.315Z,11.22
2023-03-24T17:02:59.989Z,11.14
2023-03-24T17:05:29.004Z,11.17
2023-03-24T17:07:56.123Z,11.02
2023-03-24T17:10:23.802Z,10.94
2023-03-24T17:12:50.621Z,10.62
2023-03-24T17:15:24.894Z,10.49
2023-03-24T17:17:51.936Z,10.30
2023-03-24T17:20:18.716Z,10.24
2023-03-24T17:22:46.373Z,10.19
2023-03-24T17:25:13.610Z,10.11
2023-03-24T17:27:40.248Z,10.07
2023-03-24T17:30:07.546Z,10.05
2023-03-24T17:32:34.296Z,10.05
2023-03-24T17:35:01.623Z,10.01
2023-03-24T17:37:31.522Z,9.96
2023-03-24T17:39:58.155Z,10.09
2023-03-24T17:42:25.959Z,10.02
2023-03-24T17:44:52.436Z,10.02
2023-03-24T17:47:19.197Z,10.04
2023-03-24T17:49:45.820Z,9.91
2023-03-24T17:52:12.308Z,9.96
2023-03-24T17:54:38.941Z,10.07
2023-03-24T17:57:05.746Z,10.05
2023-03-24T17:59:32.767Z,9.98
2023-03-24T18:01:59.339Z,10.06
2023-03-24T18:04:25.893Z,10.03
2023-03-24T18:06:52.415Z,9.98
2023-03-24T18:09:18.994Z,9.99
2023-03-24T18:11:47.699Z,9.93
2023-03-24T18:14:14.382Z,10.04
2023-03-24T18:16:40.998Z,10.07
2023-03-24T18:19:07.678Z,9.93
2023-03-24T18:21:34.412Z,10.04
2023-03-24T18:24:01.133Z,10.09
2023-03-24T18:26:27.921Z,9.94
2023-03-24T18:28:54.475Z,9.92
2023-03-24T18:31:21.774Z,9.79
2023-03-24T18:33:48.732Z,9.83
2023-03-24T18:36:16.808Z,9.75
2023-03-24T18:38:43.613Z,9.75
2023-03-24T18:41:10.523Z,9.75
2023-03-24T18:43:39.356Z,9.77
2023-03-24T18:46:09.450Z,9.69
2023-03-24T18:48:37.116Z,9.64
2023-03-24T18:51:03.950Z,9.52
2023-03-24T18:53:30.656Z,9.47
2023-03-24T18:55:57.234Z,9.45
2023-03-24T18:58:23.949Z,9.45
2023-03-24T19:00:52.074Z,9.39
2023-03-24T19:03:19.353Z,9.31
2023-03-24T19:05:46.856Z,9.21
2023-03-24T19:08:15.032Z,9.24
2023-03-24T19:10:42.878Z,9.32
2023-03-24T19:13:13.355Z,9.37
2023-03-24T19:15:40.063Z,9.38
2023-03-24T19:18:06.644Z,9.37
2023-03-24T19:20:35.020Z,9.36
2023-03-24T19:23:02.012Z,9.35
2023-03-24T19:25:28.518Z,9.31
2023-03-24T19:27:55.063Z,9.25
2023-03-24T19:30:21.607Z,9.24
2023-03-24T19:32:48.299Z,9.25
2023-03-24T19:35:14.917Z,9.19
2023-03-24T19:37:41.480Z,9.14
2023-03-24T19:40:11.912Z,9.19
2023-03-24T19:42:41.987Z,9.13
2023-03-24T19:45:12.976Z,9.14
2023-03-24T19:47:39.524Z,9.17
2023-03-24T19:50:07.499Z,9.27
2023-03-24T19:52:34.350Z,9.20
2023-03-24T19:55:00.902Z,9.17
2023-03-24T19:57:30.448Z,9.15
2023-03-24T19:59:57.401Z,9.24
2023-03-24T20:02:24.676Z,9.23
2023-03-24T20:04:52.007Z,9.22
2023-03-24T20:07:18.676Z,9.17
2023-03-24T20:09:45.343Z,9.09
2023-03-24T20:12:11.933Z,9.00
2023-03-24T20:14:38.442Z,8.87
2023-03-24T20:17:05.287Z,8.80
2023-03-24T20:19:31.905Z,8.76
2023-03-24T20:21:58.354Z,8.76
2023-03-24T20:24:24.906Z,8.59
2023-03-24T20:26:51.604Z,8.58
2023-03-24T20:29:18.200Z,8.72
2023-03-24T20:31:45.201Z,8.73
2023-03-24T20:34:11.930Z,8.71
2023-03-24T20:36:38.713Z,8.68
2023-03-24T20:39:05.819Z,8.65
2023-03-24T20:41:32.942Z,8.64
2023-03-24T20:43:59.472Z,8.52
2023-03-24T20:46:25.983Z,8.45
2023-03-24T20:48:52.669Z,8.25
2023-03-24T20:51:19.217Z,8.29
2023-03-24T20:53:49.764Z,8.25
2023-03-24T20:56:16.844Z,8.26
2023-03-24T20:58:44.473Z,8.28
2023-03-24T21:01:22.392Z,8.36
2023-03-24T21:03:50.138Z,8.31
2023-03-24T21:06:16.871Z,8.25
2023-03-24T21:08:45.237Z,8.32
2023-03-24T21:11:11.962Z,8.39
2023-03-24T21:13:38.453Z,8.28
2023-03-24T21:16:08.105Z,8.21
2023-03-24T21:18:35.903Z,8.24
2023-03-24T21:21:05.172Z,8.22
2023-03-24T21:23:34.413Z,8.27
2023-03-24T21:26:02.722Z,8.31
2023-03-24T21:28:30.760Z,8.28
2023-03-24T21:31:07.236Z,8.33
2023-03-24T21:33:33.807Z,8.09
2023-03-24T21:36:00.403Z,8.20
2023-03-24T21:38:27.082Z,8.26
2023-03-24T21:41:00.344Z,8.19
2023-03-24T21:43:29.142Z,8.32
2023-03-24T21:45:58.803Z,8.48
2023-03-24T21:48:26.612Z,8.47
2023-03-24T21:50:53.814Z,8.52
2023-03-24T21:53:20.970Z,8.58
2023-03-24T21:55:55.623Z,8.56
2023-03-24T21:58:22.680Z,8.48
2023-03-24T22:00:49.588Z,8.31
2023-03-24T22:03:16.670Z,8.38
2023-03-24T22:05:44.125Z,8.44
2023-03-24T22:08:12.086Z,8.47
2023-03-24T22:10:42.411Z,8.45
2023-03-24T22:13:10.245Z,8.42
2023-03-24T22:15:36.929Z,8.44
2023-03-24T22:18:03.747Z,8.33
2023-03-24T22:20:31.902Z,8.29
2023-03-24T22:22:58.514Z,8.26
2023-03-24T22:25:25.127Z,8.29
2023-03-24T22:27:52.830Z,8.28
2023-03-24T22:30:19.583Z,8.25
2023-03-24T22:32:46.230Z,8.39
2023-03-24T22:35:12.735Z,8.36
2023-03-24T22:37:39.206Z,8.28
2023-03-24T22:40:07.338Z,8.26
2023-03-24T22:42:33.788Z,8.27
2023-03-24T22:45:00.515Z,8.17
2023-03-24T22:47:28.834Z,8.20
2023-03-24T22:49:55.386Z,8.13
2023-03-24T22:52:21.903Z,8.07
2023-03-24T22:54:48.551Z,8.14
2023-03-24T22:57:16.407Z,8.05
2023-03-24T22:59:42.909Z,8.00
2023-03-24T23:02:10.508Z,7.92
2023-03-24T23:04:37.449Z,7.84
2023-03-24T23:07:06.149Z,7.83
2023-03-24T23:09:32.934Z,7.86
2023-03-24T23:11:59.616Z,7.86
2023-03-24T23:14:26.381Z,7.81
2023-03-24T23:16:54.380Z,7.81
2023-03-24T23:19:20.859Z,7.81
2023-03-24T23:21:47.349Z,7.81
2023-03-24T23:24:13.876Z,7.87
2023-03-24T23:26:40.356Z,7.77
2023-03-24T23:29:06.880Z,7.69
2023-03-24T23:31:35.603Z,7.66
2023-03-24T23:34:04.340Z,7.61
2023-03-24T23:36:34.038Z,7.49
2023-03-24T23:39:00.546Z,7.43
2023-03-24T23:41:27.024Z,7.43
2023-03-24T23:43:53.601Z,7.42
2023-03-24T23:46:20.191Z,7.41
2023-03-24T23:48:46.788Z,7.38
2023-03-24T23:51:13.263Z,7.31
2023-03-24T23:53:39.844Z,7.18
2023-03-24T23:56:07.411Z,7.12
2023-03-24T23:58:35.647Z,7.12
